createdAt,value
2018-07-20T00:01:57.645Z,11.80
2018-07-20T00:04:26.190Z,11.23
2018-07-20T00:06:54.734Z,13.10
2018-07-20T00:09:23.266Z,8.70
2018-07-20T00:11:51.719Z,8.97
2018-07-20T00:14:20.495Z,9.63
2018-07-20T00:16:48.931Z,8.33
2018-07-20T00:19:17.411Z,9.30
2018-07-20T00:21:45.849Z,7.60
2018-07-20T00:24:14.304Z,8.80
2018-07-20T00:26:42.737Z,8.60
2018-07-20T00:29:11.173Z,6.80
2018-07-20T00:31:39.600Z,9.17
2018-07-20T00:34:08.034Z,10.13
2018-07-20T00:36:36.463Z,7.87
2018-07-20T00:39:08.346Z,7.33
2018-07-20T00:41:36.767Z,10.33
2018-07-20T00:44:05.217Z,9.77
2018-07-20T00:46:33.713Z,10.63
2018-07-20T00:49:02.160Z,9.67
2018-07-20T00:51:30.591Z,8.80
2018-07-20T00:53:59.041Z,8.93
2018-07-20T00:56:27.475Z,8.50
2018-07-20T00:58:55.934Z,18.63
2018-07-20T01:01:24.359Z,14.83
2018-07-20T01:03:52.778Z,10.53
2018-07-20T01:06:21.910Z,10.33
2018-07-20T01:08:50.360Z,11.00
2018-07-20T01:11:18.869Z,12.78
2018-07-20T01:13:47.329Z,10.08
2018-07-20T01:16:15.750Z,12.10
2018-07-20T01:18:44.174Z,8.67
2018-07-20T01:21:12.609Z,9.40
2018-07-20T01:23:41.042Z,10.53
2018-07-20T01:26:09.491Z,7.83
2018-07-20T01:28:37.921Z,9.93
2018-07-20T01:31:06.351Z,8.50
2018-07-20T01:33:34.790Z,8.75
2018-07-20T01:36:03.288Z,11.37
2018-07-20T01:38:31.731Z,9.33
2018-07-20T01:43:50.665Z,9.03
2018-07-20T01:46:19.116Z,12.03
2018-07-20T01:48:47.540Z,10.53
2018-07-20T01:51:15.969Z,8.20
2018-07-20T01:53:44.392Z,9.47
2018-07-20T01:56:12.801Z,8.50
2018-07-20T01:58:41.261Z,13.10
2018-07-20T02:01:09.710Z,9.33
2018-07-20T02:03:38.153Z,8.33
2018-07-20T02:06:06.678Z,10.85
2018-07-20T02:08:35.119Z,10.32
2018-07-20T02:11:03.570Z,8.30
2018-07-20T02:13:32.003Z,8.60
2018-07-20T02:16:00.510Z,8.75
2018-07-20T02:18:28.937Z,7.75
2018-07-20T02:20:57.354Z,9.13
2018-07-20T02:23:25.782Z,8.50
2018-07-20T02:25:54.664Z,9.18
2018-07-20T02:28:23.124Z,9.35
2018-07-20T02:30:51.559Z,9.23
2018-07-20T02:33:20.036Z,8.75
2018-07-20T02:35:48.523Z,10.23
2018-07-20T02:38:16.988Z,10.50
2018-07-20T02:40:45.452Z,8.88
2018-07-20T02:43:18.177Z,9.90
2018-07-20T02:45:48.282Z,7.90
2018-07-20T02:48:17.575Z,9.03
2018-07-20T02:50:49.545Z,9.30
2018-07-20T02:53:20.491Z,9.28
2018-07-20T02:55:50.038Z,9.55
2018-07-20T02:58:19.127Z,8.15
2018-07-20T03:00:48.778Z,9.60
2018-07-20T03:03:18.118Z,7.53
2018-07-20T03:05:49.157Z,9.23
2018-07-20T03:08:17.811Z,8.83
2018-07-20T03:10:48.265Z,8.88
2018-07-20T03:13:17.536Z,10.08
2018-07-20T03:15:46.974Z,10.15
2018-07-20T03:18:15.555Z,9.63
2018-07-20T03:20:45.949Z,10.43
2018-07-20T03:23:14.786Z,11.30
2018-07-20T03:25:44.483Z,9.70
2018-07-20T03:28:15.897Z,10.50
2018-07-20T03:30:44.745Z,9.38
2018-07-20T03:33:13.169Z,8.30
2018-07-20T03:35:41.586Z,9.38
2018-07-20T03:38:10.046Z,9.58
2018-07-20T03:40:38.517Z,9.15
2018-07-20T03:43:07.003Z,10.40
2018-07-20T03:45:35.470Z,9.50
2018-07-20T03:48:03.987Z,10.80
2018-07-20T03:50:32.451Z,14.18
2018-07-20T03:53:00.869Z,13.03
2018-07-20T03:55:29.307Z,9.68
2018-07-20T03:57:59.577Z,9.30
2018-07-20T04:00:30.070Z,9.23
2018-07-20T04:03:00.115Z,9.70
2018-07-20T04:05:28.662Z,9.05
2018-07-20T04:07:57.102Z,8.70
2018-07-20T04:10:25.518Z,8.40
2018-07-20T04:12:54.005Z,8.97
2018-07-20T04:15:22.440Z,8.40
2018-07-20T04:17:50.884Z,8.35
2018-07-20T04:20:19.345Z,8.05
2018-07-20T04:22:47.817Z,8.33
2018-07-20T04:25:19.879Z,9.60
2018-07-20T04:27:48.361Z,8.83
2018-07-20T04:30:18.035Z,9.73
2018-07-20T04:32:46.529Z,9.43
2018-07-20T04:35:17.244Z,8.70
2018-07-20T04:37:45.653Z,9.40
2018-07-20T04:40:14.150Z,8.83
2018-07-20T04:42:42.594Z,10.23
2018-07-20T04:45:12.250Z,9.37
2018-07-20T04:47:40.712Z,9.97
2018-07-20T04:50:09.185Z,7.70
2018-07-20T04:52:38.697Z,8.83
2018-07-20T04:55:08.277Z,8.90
2018-07-20T04:57:38.072Z,15.27
2018-07-20T05:00:08.126Z,7.90
2018-07-20T05:02:36.556Z,7.20
2018-07-20T05:05:07.605Z,7.90
2018-07-20T05:07:36.000Z,8.27
2018-07-20T05:10:04.550Z,7.70
2018-07-20T05:12:32.954Z,8.30
2018-07-20T05:15:01.392Z,8.23
2018-07-20T05:17:29.799Z,13.87
2018-07-20T05:19:58.230Z,12.30
2018-07-20T05:22:26.675Z,8.50
2018-07-20T05:24:55.137Z,9.23
2018-07-20T05:27:23.594Z,11.20
2018-07-20T05:29:52.721Z,7.30
2018-07-20T05:32:21.158Z,8.30
2018-07-20T05:34:49.596Z,8.97
2018-07-20T05:37:18.057Z,8.23
2018-07-20T05:39:46.457Z,7.43
2018-07-20T05:42:14.889Z,9.60
2018-07-20T05:44:43.306Z,8.77
2018-07-20T05:47:12.167Z,8.33
2018-07-20T05:49:40.599Z,7.90
2018-07-20T05:52:09.065Z,7.90
2018-07-20T05:54:37.486Z,8.17
2018-07-20T05:57:05.922Z,8.47
2018-07-20T05:59:34.413Z,7.33
2018-07-20T06:02:02.870Z,7.70
2018-07-20T06:04:31.294Z,11.37
2018-07-20T06:06:59.705Z,9.30
2018-07-20T06:09:28.121Z,8.03
2018-07-20T06:11:56.562Z,7.53
2018-07-20T06:14:24.995Z,7.40
2018-07-20T06:16:53.134Z,7.60
2018-07-20T06:19:21.589Z,7.97
2018-07-20T06:21:50.033Z,7.80
2018-07-20T06:24:18.471Z,7.10
2018-07-20T06:26:46.940Z,7.80
2018-07-20T06:29:15.377Z,7.20
2018-07-20T06:31:43.858Z,9.60
2018-07-20T06:34:12.281Z,7.20
2018-07-20T06:36:40.715Z,7.17
2018-07-20T06:39:11.041Z,7.80
2018-07-20T06:41:39.176Z,8.50
2018-07-20T06:44:07.656Z,7.43
2018-07-20T06:46:36.842Z,5.97
2018-07-20T06:49:05.873Z,10.83
2018-07-20T06:51:34.457Z,9.10
2018-07-20T06:54:02.941Z,14.93
2018-07-20T06:56:31.402Z,6.93
2018-07-20T06:58:59.915Z,6.57
2018-07-20T07:01:28.337Z,9.03
2018-07-20T07:03:56.912Z,7.70
2018-07-20T07:06:25.370Z,7.23
2018-07-20T07:08:53.788Z,6.20
2018-07-20T07:11:22.285Z,11.70
2018-07-20T07:13:50.705Z,7.70
2018-07-20T07:16:19.498Z,6.70
2018-07-20T07:18:47.916Z,5.63
2018-07-20T07:21:16.350Z,5.73
2018-07-20T07:23:44.875Z,6.27
2018-07-20T07:26:13.257Z,8.00
2018-07-20T07:28:41.734Z,5.90
2018-07-20T07:31:10.201Z,5.50
2018-07-20T07:33:38.616Z,6.53
2018-07-20T07:36:07.080Z,6.73
2018-07-20T07:38:35.505Z,5.27
2018-07-20T07:41:03.951Z,5.30
2018-07-20T07:43:32.382Z,4.43
2018-07-20T07:46:00.802Z,4.53
2018-07-20T07:48:29.279Z,4.53
2018-07-20T07:50:57.700Z,7.63
2018-07-20T07:53:26.141Z,5.10
2018-07-20T07:55:55.822Z,5.80
2018-07-20T07:58:24.261Z,4.27
2018-07-20T08:00:52.714Z,5.43
2018-07-20T08:03:21.143Z,5.20
2018-07-20T08:05:50.477Z,4.53
2018-07-20T08:08:18.986Z,4.63
2018-07-20T08:10:47.545Z,4.90
2018-07-20T08:13:15.989Z,4.37
2018-07-20T08:15:44.441Z,3.93
2018-07-20T08:18:12.853Z,4.00
2018-07-20T08:20:41.285Z,3.93
2018-07-20T08:23:09.412Z,3.87
2018-07-20T08:25:37.844Z,4.20
2018-07-20T08:28:06.356Z,4.50
2018-07-20T08:30:35.156Z,4.93
2018-07-20T08:33:03.747Z,5.57
2018-07-20T08:35:32.241Z,4.80
2018-07-20T08:38:00.698Z,9.13
2018-07-20T08:40:29.318Z,3.50
2018-07-20T08:42:57.786Z,3.73
2018-07-20T08:45:26.245Z,4.17
2018-07-20T08:47:54.662Z,3.67
2018-07-20T08:50:23.085Z,4.90
2018-07-20T08:52:51.530Z,3.77
2018-07-20T08:55:19.998Z,4.83
2018-07-20T08:57:48.469Z,5.73
2018-07-20T09:00:16.938Z,3.20
2018-07-20T09:02:45.357Z,3.00
2018-07-20T09:05:13.777Z,3.50
2018-07-20T09:07:42.257Z,4.80
2018-07-20T09:10:10.850Z,6.87
2018-07-20T09:12:39.333Z,9.80
2018-07-20T09:15:07.830Z,3.20
2018-07-20T09:17:36.259Z,3.60
2018-07-20T09:20:04.720Z,5.83
2018-07-20T09:22:33.159Z,3.77
2018-07-20T09:25:01.571Z,3.33
2018-07-20T09:27:30.064Z,4.80
2018-07-20T09:29:58.480Z,3.60
2018-07-20T09:32:26.900Z,4.93
2018-07-20T09:34:55.312Z,3.43
2018-07-20T09:37:23.762Z,2.90
2018-07-20T09:39:52.225Z,3.67
2018-07-20T09:42:20.381Z,3.13
2018-07-20T09:44:48.807Z,3.40
2018-07-20T09:47:17.244Z,3.73
2018-07-20T09:49:45.669Z,3.10
2018-07-20T09:52:14.137Z,2.73
2018-07-20T09:54:42.551Z,3.70
2018-07-20T09:57:10.997Z,5.77
2018-07-20T09:59:39.463Z,5.87
2018-07-20T10:02:07.895Z,4.43
2018-07-20T10:04:36.313Z,2.90
2018-07-20T10:07:04.788Z,3.93
2018-07-20T10:09:33.249Z,3.40
2018-07-20T10:12:01.690Z,2.90
2018-07-20T10:14:30.169Z,4.97
2018-07-20T10:16:58.606Z,3.80
2018-07-20T10:19:27.070Z,2.87
2018-07-20T10:21:55.505Z,3.40
2018-07-20T10:24:23.933Z,3.70
2018-07-20T10:26:52.366Z,3.27
2018-07-20T10:29:20.793Z,2.80
2018-07-20T10:31:49.270Z,3.20
2018-07-20T10:34:18.624Z,4.13
2018-07-20T10:36:47.034Z,3.40
2018-07-20T10:39:15.457Z,4.03
2018-07-20T10:41:43.870Z,3.50
2018-07-20T10:44:12.282Z,5.70
2018-07-20T10:46:40.751Z,2.60
2018-07-20T10:49:09.261Z,3.80
2018-07-20T10:51:37.677Z,3.30
2018-07-20T10:54:06.238Z,5.40
2018-07-20T10:56:34.697Z,3.70
2018-07-20T10:59:02.860Z,5.87
2018-07-20T11:01:31.315Z,3.17
2018-07-20T11:03:59.713Z,3.30
2018-07-20T11:06:28.126Z,5.17
2018-07-20T11:08:56.562Z,3.50
2018-07-20T11:11:24.979Z,2.93
2018-07-20T11:13:53.425Z,8.83
2018-07-20T11:16:21.877Z,4.63
2018-07-20T11:18:50.321Z,3.37
2018-07-20T11:21:18.754Z,5.00
2018-07-20T11:23:47.201Z,4.30
2018-07-20T11:26:15.605Z,5.17
2018-07-20T11:28:44.042Z,5.23
2018-07-20T11:31:12.481Z,8.70
2018-07-20T11:33:40.925Z,5.23
2018-07-20T11:36:09.370Z,3.20
2018-07-20T11:38:37.821Z,5.53
2018-07-20T11:41:06.301Z,6.93
2018-07-20T11:43:34.732Z,4.23
2018-07-20T11:46:03.225Z,3.20
2018-07-20T11:48:31.685Z,3.43
2018-07-20T11:51:00.116Z,6.23
2018-07-20T11:53:28.569Z,2.87
2018-07-20T11:55:57.147Z,6.60
2018-07-20T11:58:25.586Z,4.50
2018-07-20T12:00:54.074Z,2.30
2018-07-20T12:03:22.527Z,3.97
2018-07-20T12:05:50.947Z,4.23
2018-07-20T12:08:19.375Z,3.70
2018-07-20T12:10:47.838Z,3.73
2018-07-20T12:13:16.276Z,3.57
2018-07-20T12:15:44.697Z,6.70
2018-07-20T12:18:13.145Z,3.20
2018-07-20T12:20:41.577Z,5.33
2018-07-20T12:23:09.997Z,4.23
2018-07-20T12:25:38.430Z,3.90
2018-07-20T12:28:06.875Z,5.00
2018-07-20T12:30:35.292Z,3.87
2018-07-20T12:33:03.779Z,3.20
2018-07-20T12:35:32.237Z,3.80
2018-07-20T12:38:00.679Z,4.40
2018-07-20T12:40:29.129Z,4.87
2018-07-20T12:42:57.542Z,3.67
2018-07-20T12:45:25.987Z,4.73
2018-07-20T12:47:54.423Z,4.33
2018-07-20T12:50:22.937Z,5.17
2018-07-20T12:52:51.519Z,9.90
2018-07-20T12:55:20.052Z,5.17
2018-07-20T12:57:49.794Z,4.50
2018-07-20T13:00:18.262Z,4.40
2018-07-20T13:02:46.709Z,6.53
2018-07-20T13:05:15.165Z,3.33
2018-07-20T13:07:43.614Z,5.93
2018-07-20T13:10:12.090Z,4.03
2018-07-20T13:12:40.547Z,5.50
2018-07-20T13:15:09.002Z,4.93
2018-07-20T13:17:37.458Z,8.40
2018-07-20T13:20:06.202Z,6.60
2018-07-20T13:22:34.754Z,7.97
2018-07-20T13:25:03.247Z,7.70
2018-07-20T13:27:31.665Z,8.80
2018-07-20T13:30:00.091Z,3.70
2018-07-20T13:32:28.572Z,7.17
2018-07-20T13:34:57.004Z,4.90
2018-07-20T13:37:25.426Z,8.53
2018-07-20T13:39:53.900Z,5.30
2018-07-20T13:42:22.295Z,6.90
2018-07-20T13:44:50.947Z,4.70
2018-07-20T13:47:21.298Z,5.43
2018-07-20T13:49:49.733Z,4.67
2018-07-20T13:52:17.849Z,4.67
2018-07-20T13:54:46.316Z,5.50
2018-07-20T13:57:14.758Z,4.00
2018-07-20T13:59:43.255Z,6.73
2018-07-20T14:02:11.717Z,4.63
2018-07-20T14:04:40.867Z,4.00
2018-07-20T14:07:09.289Z,9.70
2018-07-20T14:09:37.758Z,3.50
2018-07-20T14:12:06.207Z,3.50
2018-07-20T14:14:34.622Z,4.60
2018-07-20T14:17:03.083Z,5.30
2018-07-20T14:19:31.531Z,6.00
2018-07-20T14:21:59.969Z,3.90
2018-07-20T14:24:28.392Z,5.37
2018-07-20T14:26:56.829Z,3.93
2018-07-20T14:29:25.269Z,5.07
2018-07-20T14:31:53.714Z,4.97
2018-07-20T14:34:22.137Z,4.57
2018-07-20T14:36:50.598Z,3.73
2018-07-20T14:39:19.019Z,8.63
2018-07-20T14:41:47.133Z,6.83
2018-07-20T14:44:15.562Z,6.73
2018-07-20T14:46:43.980Z,4.63
2018-07-20T14:49:12.459Z,4.47
2018-07-20T14:51:40.891Z,5.37
2018-07-20T14:54:09.359Z,5.80
2018-07-20T14:56:37.810Z,9.03
2018-07-20T14:59:06.289Z,5.27
2018-07-20T15:01:34.715Z,7.90
2018-07-20T15:04:03.158Z,3.87
2018-07-20T15:06:31.611Z,4.60
2018-07-20T15:09:00.039Z,5.90
2018-07-20T15:11:28.630Z,12.23
2018-07-20T15:13:57.081Z,12.97
2018-07-20T15:16:25.501Z,5.00
2018-07-20T15:18:53.993Z,6.50
2018-07-20T15:21:22.503Z,6.07
2018-07-20T15:23:50.918Z,8.40
2018-07-20T15:26:19.368Z,9.40
2018-07-20T15:28:47.797Z,6.40
2018-07-20T15:31:16.260Z,4.00
2018-07-20T15:33:44.716Z,4.53
2018-07-20T15:36:13.246Z,3.80
2018-07-20T15:38:41.690Z,5.30
2018-07-20T15:41:10.307Z,6.50
2018-07-20T15:43:39.936Z,13.83
2018-07-20T15:46:08.411Z,5.87
2018-07-20T15:48:37.974Z,4.60
2018-07-20T15:51:07.014Z,5.27
2018-07-20T15:53:36.274Z,14.97
2018-07-20T15:56:04.027Z,5.60
2018-07-20T15:58:32.514Z,4.47
2018-07-20T16:01:00.958Z,4.90
2018-07-20T16:03:29.393Z,5.60
2018-07-20T16:05:58.112Z,6.43
2018-07-20T16:08:26.493Z,4.37
2018-07-20T16:10:54.941Z,4.73
2018-07-20T16:13:23.438Z,5.97
2018-07-20T16:15:51.909Z,4.50
2018-07-20T16:18:20.045Z,5.30
2018-07-20T16:20:48.518Z,5.37
2018-07-20T16:23:19.416Z,5.33
2018-07-20T16:25:49.447Z,4.40
2018-07-20T16:28:20.123Z,5.23
2018-07-20T16:30:50.291Z,4.00
2018-07-20T16:33:20.151Z,4.83
2018-07-20T16:35:50.207Z,4.00
2018-07-20T16:38:21.094Z,4.87
2018-07-20T16:40:49.565Z,4.83
2018-07-20T16:43:18.003Z,6.93
2018-07-20T16:45:46.414Z,6.47
2018-07-20T16:48:14.817Z,9.60
2018-07-20T16:50:43.353Z,4.20
2018-07-20T16:53:11.753Z,7.70
2018-07-20T16:55:40.170Z,5.00
2018-07-20T16:58:08.624Z,5.30
2018-07-20T17:00:37.088Z,5.53
2018-07-20T17:03:05.501Z,4.40
2018-07-20T17:05:34.000Z,7.20
2018-07-20T17:08:02.541Z,5.80
2018-07-20T17:10:31.045Z,5.40
2018-07-20T17:12:59.494Z,10.77
2018-07-20T17:15:27.975Z,12.40
2018-07-20T17:17:56.422Z,11.97
2018-07-20T17:20:24.846Z,5.53
2018-07-20T17:22:53.269Z,16.43
2018-07-20T17:25:21.728Z,8.50
2018-07-20T17:27:50.232Z,14.60
2018-07-20T17:30:18.758Z,5.30
2018-07-20T17:32:47.196Z,8.60
2018-07-20T17:35:15.646Z,7.97
2018-07-20T17:37:44.104Z,12.10
2018-07-20T17:40:12.652Z,5.83
2018-07-20T17:42:41.082Z,6.40
2018-07-20T17:45:09.580Z,7.40
2018-07-20T17:47:38.018Z,9.30
2018-07-20T17:50:06.503Z,7.93
2018-07-20T17:52:34.962Z,10.50
2018-07-20T17:55:04.742Z,8.57
2018-07-20T17:57:33.161Z,13.93
2018-07-20T18:00:01.706Z,12.80
2018-07-20T18:02:30.358Z,16.03
2018-07-20T18:04:58.885Z,13.07
2018-07-20T18:07:27.512Z,13.20
2018-07-20T18:09:55.976Z,9.63
2018-07-20T18:12:24.457Z,15.00
2018-07-20T18:14:53.969Z,15.60
2018-07-20T18:17:22.570Z,15.27
2018-07-20T18:19:51.023Z,10.30
2018-07-20T18:22:19.617Z,9.23
2018-07-20T18:24:48.049Z,9.10
2018-07-20T18:27:16.723Z,11.37
2018-07-20T18:29:45.049Z,10.07
2018-07-20T18:32:13.505Z,13.70
2018-07-20T18:34:41.985Z,9.90
2018-07-20T18:37:10.474Z,13.87
2018-07-20T18:39:38.934Z,10.60
2018-07-20T18:42:07.450Z,9.57
2018-07-20T18:44:36.071Z,8.23
2018-07-20T18:47:04.666Z,9.73
2018-07-20T18:49:33.333Z,8.73
2018-07-20T18:52:01.974Z,9.10
2018-07-20T18:54:33.656Z,10.90
2018-07-20T18:57:02.180Z,8.43
2018-07-20T18:59:30.661Z,15.00
2018-07-20T19:01:59.095Z,8.20
2018-07-20T19:04:28.908Z,6.50
2018-07-20T19:06:57.551Z,7.07
2018-07-20T19:09:28.498Z,9.43
2018-07-20T19:11:57.247Z,10.73
2018-07-20T19:14:26.996Z,9.03
2018-07-20T19:16:55.995Z,8.37
2018-07-20T19:19:24.645Z,7.27
2018-07-20T19:21:53.308Z,10.20
2018-07-20T19:24:21.845Z,6.90
2018-07-20T19:26:50.461Z,7.97
2018-07-20T19:29:19.169Z,7.83
2018-07-20T19:31:47.722Z,7.37
2018-07-20T19:34:16.296Z,10.80
2018-07-20T19:36:45.023Z,8.90
2018-07-20T19:39:13.765Z,8.80
2018-07-20T19:41:42.254Z,6.70
2018-07-20T19:44:12.284Z,7.13
2018-07-20T19:46:45.333Z,9.80
2018-07-20T19:49:13.877Z,7.30
2018-07-20T19:51:42.379Z,9.10
2018-07-20T19:54:10.876Z,8.00
2018-07-20T19:56:39.309Z,8.10
2018-07-20T19:59:13.706Z,8.17
2018-07-20T20:01:42.153Z,7.80
2018-07-20T20:04:10.632Z,8.70
2018-07-20T20:06:39.077Z,8.20
2018-07-20T20:09:09.290Z,6.37
2018-07-20T20:11:37.768Z,8.97
2018-07-20T20:14:05.928Z,7.93
2018-07-20T20:16:34.556Z,10.43
2018-07-20T20:19:04.416Z,9.63
2018-07-20T20:21:32.902Z,7.23
2018-07-20T20:24:01.346Z,9.20
2018-07-20T20:26:29.781Z,11.03
2018-07-20T20:28:58.332Z,6.23
2018-07-20T20:31:26.794Z,10.20
2018-07-20T20:33:55.288Z,8.33
2018-07-20T20:36:24.676Z,9.70
2018-07-20T20:38:54.288Z,8.00
2018-07-20T20:41:23.468Z,8.57
2018-07-20T20:43:52.612Z,8.10
2018-07-20T20:46:21.498Z,8.83
2018-07-20T20:48:50.641Z,7.30
2018-07-20T20:51:19.977Z,6.53
2018-07-20T20:53:48.907Z,9.43
2018-07-20T20:56:17.938Z,8.93
2018-07-20T20:58:47.253Z,7.77
2018-07-20T21:01:16.167Z,8.77
2018-07-20T21:03:45.142Z,8.03
2018-07-20T21:06:14.217Z,8.33
2018-07-20T21:08:43.217Z,9.47
2018-07-20T21:11:11.867Z,6.93
2018-07-20T21:13:40.949Z,8.60
2018-07-20T21:16:09.880Z,11.80
2018-07-20T21:18:38.950Z,6.93
2018-07-20T21:21:08.033Z,9.03
2018-07-20T21:23:36.964Z,7.93
2018-07-20T21:26:06.177Z,7.97
2018-07-20T21:28:34.670Z,9.80
2018-07-20T21:31:03.134Z,8.87
2018-07-20T21:33:31.591Z,8.60
2018-07-20T21:36:00.051Z,11.50
2018-07-20T21:38:28.740Z,7.17
2018-07-20T21:40:57.546Z,8.60
2018-07-20T21:43:26.004Z,7.60
2018-07-20T21:45:54.433Z,13.33
2018-07-20T21:48:22.875Z,7.17
2018-07-20T21:50:51.326Z,9.00
2018-07-20T21:53:19.770Z,11.03
2018-07-20T21:55:48.204Z,7.40
2018-07-20T21:58:16.682Z,8.20
2018-07-20T22:00:45.136Z,9.07
2018-07-20T22:03:13.600Z,8.20
2018-07-20T22:05:42.026Z,10.67
2018-07-20T22:08:16.105Z,11.60
2018-07-20T22:10:44.522Z,8.67
2018-07-20T22:13:13.040Z,11.90
2018-07-20T22:15:41.480Z,9.60
2018-07-20T22:18:13.902Z,9.60
2018-07-20T22:20:42.858Z,10.70
2018-07-20T22:23:13.397Z,9.53
2018-07-20T22:25:41.949Z,8.63
2018-07-20T22:28:10.382Z,8.53
2018-07-20T22:30:38.811Z,12.97
2018-07-20T22:33:07.353Z,12.53
2018-07-20T22:35:35.815Z,12.37
2018-07-20T22:38:04.262Z,10.03
2018-07-20T22:40:32.674Z,9.83
2018-07-20T22:43:02.135Z,10.07
2018-07-20T22:45:30.967Z,9.50
2018-07-20T22:47:59.402Z,11.57
2018-07-20T22:50:27.901Z,11.70
2018-07-20T22:52:56.317Z,18.00
2018-07-20T22:55:24.431Z,12.97
2018-07-20T22:57:52.845Z,10.43
2018-07-20T23:00:21.370Z,10.30
2018-07-20T23:02:49.791Z,11.87
2018-07-20T23:05:18.214Z,11.20
2018-07-20T23:07:46.625Z,11.03
2018-07-20T23:10:15.095Z,10.10
2018-07-20T23:12:43.554Z,11.60
2018-07-20T23:15:12.004Z,13.73
2018-07-20T23:17:40.450Z,14.20
2018-07-20T23:20:08.866Z,9.77
2018-07-20T23:22:37.282Z,10.57
2018-07-20T23:25:05.745Z,11.03
2018-07-20T23:27:34.151Z,11.20
2018-07-20T23:30:02.584Z,9.77
2018-07-20T23:32:31.009Z,10.37
2018-07-20T23:34:59.467Z,10.80
2018-07-20T23:37:27.910Z,12.00
2018-07-20T23:39:56.328Z,10.60
2018-07-20T23:42:24.789Z,13.33
2018-07-20T23:44:53.208Z,18.23
2018-07-20T23:47:21.644Z,11.80
2018-07-20T23:49:50.313Z,10.90
2018-07-20T23:52:18.741Z,11.57
2018-07-20T23:54:48.412Z,15.43
2018-07-20T23:57:17.010Z,13.37
2018-07-20T23:59:45.535Z,11.17
